Pagrindinis puslapis
METAR-TAF:

METAR-TAF

Oro uostai :

Džida, Saudo Arabija

platuma: 21-42N, ilguma: 039-11E, Aukštis: 15 m

Dabartinis oras

Ataskaita buvo paskelbta 39 minutes, ne 00:00 UTC
Vėjas 6 kt iš Šiaurės/Šiaurės Vakarų
Temperatūra 29°C
Drėgmė 84%
Slėgis 1004 hPa
Matomumas 10 km arba daugiau
nėra debesų žemiau 1500 m ir nėra kamuolinių lietaus debesų

METAR: OEJN 240000Z 33006KT CAVOK 29/26 Q1004 NOSIG

Laikas: 03:39 (00:39 UTC)

Prognozė

Ataskaita buvo paskelbta 1 valandą ir 39 minutes, ne 23:00 UTC
Prognozė galioja nuo 24 metu 00 UTC su 25 metu 06 UTC
Vėjas 7 kt iš Šiaurės
Matomumas: 8000 m
Laikinai
nuo 24 metu 00 UTC su 24 metu 04 UTC
Matomumas: 4000 m
Mažai debesys ne aukštis 2000 ft
rūkana
Tapsmas
nuo 24 metu 06 UTC su 24 metu 08 UTC
Vėjas 16 kt iš Šiaurės Vakarų
Matomumas 10 km arba daugiau
Mažai debesys ne aukštis 4000 ft
Tapsmas
nuo 24 metu 18 UTC su 24 metu 20 UTC
Vėjas 5 kt iš Šiaurės

TAF: OEJN 232300Z 2400/2506 01007KT 8000 NSC TEMPO 2400/2404 4000 BR FEW020 BECMG 2406/2408 31016KT 9999 FEW040 BECMG 2418/2420 01005KT

Orai ataskaitas ir orų prognozės (METAR, TAF).

turimą stotys yra geltonos ir raudonos taškus žemėlapyje.

Perkelti pele per norėdami pamatyti stoties vardą.

Tada spustelėkite, norėdami matyti oro stebėjimo ir prognozės.

Norėdami pakeisti žemėlapį: spustelėkite ant žalios mygtukų su juodo kryžiaus žemyn,; žalią mygtuką su brūkšneliu, jei norite nutolinti; arba žalių rodyklių gretimoms žemėlapius.


METAR-TAF: